Kjella — JXMW — position and weather

sailwx.info

Track history (hours):
 
Tides and Currents Weather Stations Pressure Air Temp Water Temp Dewpoint Dewpoint Depression Visibility Wind Speed Wind Dir Waves Ship Positions

Kjella

Last reported at 2017-Dec-11 17:00 UTC. Time now 2017-Dec-12 12:39 UTC.
Position N 65°49' E 012°26'.

Length 55 m; draft 3.5 m.

Type: Passenger vessel. MMSI: 257049700.

Date/timePositionNaut miles runAvg speedWind from/ knotsBaromVisibWave heightAir tempDewpointWater temp
2017-Dec-11 17:00N 65°49' E 012°26'1 1.8
2017-Dec-11 16:30N 65°49' E 012°27'3 6.4
2017-Dec-11 16:00N 65°46' E 012°30'3 5.5
2017-Dec-11 15:30N 65°43' E 012°27'510.0
2017-Dec-11 15:00N 65°48' E 012°31'3 5.4
2017-Dec-11 14:29N 65°49' E 012°26'3 4.8
2017-Dec-11 13:54N 65°47' E 012°31'410.6
2017-Dec-11 13:30N 65°43' E 012°27'3 6.2
2017-Dec-11 13:00N 65°46' E 012°33'3 6.3
2017-Dec-11 12:30N 65°48' E 012°30'1 2.6
2017-Dec-11 12:00N 65°49' E 012°27'4 8.6
2017-Dec-11 11:30N 65°46' E 012°33'4 7.2
2017-Dec-11 11:00N 65°43' E 012°28'3 5.5
2017-Dec-11 10:30N 65°45' E 012°31'3 6.9
2017-Dec-11 10:00N 65°48' E 012°30'2 3.5
2017-Dec-11 09:31N 65°49' E 012°26'3 6.2
2017-Dec-11 09:00N 65°47' E 012°30'4 7.7
2017-Dec-11 08:30N 65°43' E 012°28'3 6.4
2017-Dec-11 08:00N 65°45' E 012°32'3 6.5
2017-Dec-11 07:30N 65°48' E 012°30'2 3.2
2017-Dec-11 07:00N 65°49' E 012°26'3 6.4
2017-Dec-11 06:30N 65°46' E 012°31'3 6.9
2017-Dec-11 06:00N 65°43' E 012°28'1 2.5
2017-Dec-11 05:30N 65°44' E 012°29'4 7.0
2017-Dec-11 05:00N 65°48' E 012°31'2 5.0
2017-Dec-11 04:30N 65°49' E 012°26'0 0.0
2017-Dec-11 04:00N 65°49' E 012°26'0 0.0
2017-Dec-11 03:30N 65°49' E 012°26'0 0.0
2017-Dec-11 03:00N 65°49' E 012°26'0 0.0
2017-Dec-11 02:30N 65°49' E 012°26'0 0.0
2017-Dec-11 02:00N 65°49' E 012°26'0 0.0
2017-Dec-11 01:30N 65°49' E 012°26'0 0.0
2017-Dec-11 01:00N 65°49' E 012°26'0 0.0
2017-Dec-11 00:30N 65°49' E 012°26'0 0.0
2017-Dec-11 00:00N 65°49' E 012°26'0 0.0
2017-Dec-10 23:30N 65°49' E 012°26'0 0.0
2017-Dec-10 23:00N 65°49' E 012°26'0 0.0
2017-Dec-10 22:30N 65°49' E 012°26'0 0.0
2017-Dec-10 22:00N 65°49' E 012°26'0 0.0
2017-Dec-10 21:30N 65°49' E 012°26'3 5.4
2017-Dec-10 21:00N 65°47' E 012°31'5 9.5
2017-Dec-10 20:30N 65°43' E 012°28'3 6.8
2017-Dec-10 20:00N 65°46' E 012°30'4 7.3
2017-Dec-10 19:30N 65°49' E 012°26'3 6.1
2017-Dec-10 19:00N 65°47' E 012°31'3 6.8
2017-Dec-10 18:30N 65°44' E 012°28'2 3.5
2017-Dec-10 18:00N 65°45' E 012°31'3 5.9
2017-Dec-10 17:30N 65°48' E 012°31'3 5.2
2017-Dec-10 17:00N 65°49' E 012°26'1 2.4
2017-Dec-10 16:30N 65°49' E 012°28'3 6.0
2017-Dec-10 16:00N 65°46' E 012°29'3 4.9
2017-Dec-10 15:30N 65°43' E 012°27'5 9.5
2017-Dec-10 15:00N 65°48' E 012°31'3 5.5
2017-Dec-10 14:30N 65°49' E 012°26'0 0.0
2017-Dec-10 14:00N 65°49' E 012°26'0 0.0
2017-Dec-10 13:30N 65°49' E 012°26'0 0.0
2017-Dec-10 13:00N 65°49' E 012°26'0 0.0
2017-Dec-10 12:30N 65°49' E 012°26'1 2.1
2017-Dec-10 12:00N 65°49' E 012°28'4 7.3
2017-Dec-10 11:30N 65°46' E 012°33'4 7.5
2017-Dec-10 11:00N 65°43' E 012°28'1 1.2
2017-Dec-10 10:30N 65°43' E 012°27'510.5
2017-Dec-10 10:00N 65°48' E 012°30'2 3.8
2017-Dec-10 09:30N 65°49' E 012°26'3 5.4
2017-Dec-10 09:00N 65°47' E 012°31'5 9.5
2017-Dec-10 08:30N 65°43' E 012°28'3 5.9
2017-Dec-10 08:00N 65°45' E 012°32'3 6.6
2017-Dec-10 07:30N 65°48' E 012°30'2 3.7
2017-Dec-10 07:00N 65°49' E 012°26'0 0.0
2017-Dec-10 06:30N 65°49' E 012°26'0 0.0
2017-Dec-10 06:00N 65°49' E 012°26'0 0.0
2017-Dec-10 05:30N 65°49' E 012°26'0 0.0
2017-Dec-10 05:00N 65°49' E 012°26'0 0.0
2017-Dec-10 04:30N 65°49' E 012°26'0 0.0
2017-Dec-10 04:00N 65°49' E 012°26'0 0.0
2017-Dec-10 03:30N 65°49' E 012°26'0 0.0
2017-Dec-10 03:00N 65°49' E 012°26'0 0.0
2017-Dec-10 02:30N 65°49' E 012°26'0 0.0
2017-Dec-10 02:00N 65°49' E 012°26'0 0.0
2017-Dec-10 01:29N 65°49' E 012°26'0 0.0
2017-Dec-10 01:00N 65°49' E 012°26'0 0.0
2017-Dec-10 00:30N 65°49' E 012°26'0 0.0
2017-Dec-09 23:59N 65°49' E 012°26'0 0.0
2017-Dec-09 23:29N 65°49' E 012°26'0 0.0
2017-Dec-09 23:00N 65°49' E 012°26'0 0.0
2017-Dec-09 22:30N 65°49' E 012°26'0 0.0
2017-Dec-09 22:00N 65°49' E 012°26'0 0.0
2017-Dec-09 21:30N 65°49' E 012°26'0 0.0
2017-Dec-09 21:00N 65°49' E 012°26'0 0.0
2017-Dec-09 20:30N 65°49' E 012°26'0 0.0
2017-Dec-09 20:00N 65°49' E 012°26'0 0.0
2017-Dec-09 19:30N 65°49' E 012°26'0 0.6
2017-Dec-09 19:00N 65°49' E 012°26'5 9.0
2017-Dec-09 18:30N 65°45' E 012°29'0 1.0
2017-Dec-09 17:59N 65°45' E 012°30'3 6.8
2017-Dec-09 17:30N 65°48' E 012°31'2 5.0
2017-Dec-09 17:00N 65°49' E 012°26'2 4.9
2017-Dec-09 16:30N 65°48' E 012°31'3 5.4
2017-Dec-09 16:00N 65°45' E 012°31'3 5.8
2017-Dec-09 15:30N 65°43' E 012°28'510.4
2017-Dec-09 15:00N 65°48' E 012°31'3 5.4
2017-Dec-09 14:30N 65°49' E 012°26'0 0.0
2017-Dec-09 14:00N 65°49' E 012°26'0 0.0
2017-Dec-09 13:30N 65°49' E 012°26'0 0.0
2017-Dec-09 13:00N 65°49' E 012°26'0 0.0
2017-Dec-09 12:30N 65°49' E 012°26'0 0.5
2017-Dec-09 12:00N 65°49' E 012°26'5 9.3
2017-Dec-09 11:30N 65°46' E 012°33'4 7.3
2017-Dec-09 11:00N 65°43' E 012°28'4 7.4
2017-Dec-09 10:30N 65°46' E 012°33'3 6.1
2017-Dec-09 10:00N 65°48' E 012°30'2 3.5
2017-Dec-09 09:30N 65°49' E 012°26'3 6.1
2017-Dec-09 09:00N 65°47' E 012°30'4 8.2
2017-Dec-09 08:30N 65°43' E 012°28'3 6.8
2017-Dec-09 08:00N 65°46' E 012°33'3 6.2
2017-Dec-09 07:30N 65°48' E 012°30'2 3.6
2017-Dec-09 06:59N 65°49' E 012°26'3 5.2
2017-Dec-09 06:30N 65°48' E 012°31'5 9.3
2017-Dec-09 06:00N 65°43' E 012°27'1 1.0
2017-Dec-09 05:29N 65°43' E 012°28'0 0.0
2017-Dec-09 05:00N 65°43' E 012°28'0 0.0
2017-Dec-09 04:30N 65°43' E 012°28'0 0.0
2017-Dec-09 04:00N 65°43' E 012°28'0 0.0
2017-Dec-09 03:30N 65°43' E 012°28'0 0.0
2017-Dec-09 03:00N 65°43' E 012°28'0 0.0
2017-Dec-09 02:30N 65°43' E 012°28'0 0.0
2017-Dec-09 02:00N 65°43' E 012°28'0 0.0
2017-Dec-09 01:30N 65°43' E 012°28'0 0.0
2017-Dec-09 01:00N 65°43' E 012°28'0 0.0
2017-Dec-09 00:30N 65°43' E 012°28'0 0.0
2017-Dec-09 00:00N 65°43' E 012°28'0 0.0
2017-Dec-08 23:30N 65°43' E 012°28'0 0.0
2017-Dec-08 23:00N 65°43' E 012°28'0 0.0
2017-Dec-08 22:30N 65°43' E 012°28'0 0.0
2017-Dec-08 22:00N 65°43' E 012°28'0 0.0
2017-Dec-08 21:30N 65°43' E 012°28'0 0.0
2017-Dec-08 21:00N 65°43' E 012°28'0 0.0
2017-Dec-08 20:30N 65°43' E 012°28'5 9.2
2017-Dec-08 20:00N 65°47' E 012°31'3 5.6
2017-Dec-08 19:30N 65°49' E 012°26'2 3.8
2017-Dec-08 19:00N 65°48' E 012°30'5 9.9
2017-Dec-08 18:30N 65°44' E 012°27'1 1.4
2017-Dec-08 17:59N 65°43' E 012°28'0 0.0
2017-Dec-08 17:30N 65°43' E 012°28'5 9.5
2017-Dec-08 17:00N 65°47' E 012°31'3 5.3
2017-Dec-08 16:30N 65°49' E 012°26'0 0.0
2017-Dec-08 15:59N 65°49' E 012°26'0 0.0
2017-Dec-08 15:30N 65°49' E 012°26'0 0.0
2017-Dec-08 15:00N 65°49' E 012°26'2 3.2
2017-Dec-08 14:30N 65°49' E 012°22'511.0
2017-Dec-08 14:00N 65°54' E 012°22'2 4.0
2017-Dec-08 13:30N 65°52' E 012°22'510.5
2017-Dec-08 13:00N 65°57' E 012°26'511.2
2017-Dec-08 12:30N 66°02' E 012°35'2 3.1
2017-Dec-08 12:00N 66°02' E 012°39'1 1.3
2017-Dec-08 11:30N 66°01' E 012°37'0 0.0
2017-Dec-08 10:57N 66°01' E 012°37'0 0.0
2017-Dec-08 10:30N 66°01' E 012°37'0 0.0
2017-Dec-08 10:00N 66°01' E 012°37'0 0.0
2017-Dec-08 09:30N 66°01' E 012°37'0 0.0
2017-Dec-08 09:00N 66°01' E 012°37'0 0.0
2017-Dec-08 08:30N 66°01' E 012°37'0 0.0
2017-Dec-08 08:00N 66°01' E 012°37'0 0.0
2017-Dec-08 07:30N 66°01' E 012°37'0 0.0
2017-Dec-08 07:00N 66°01' E 012°37'0 0.0
2017-Dec-08 06:30N 66°01' E 012°37'0 0.0
2017-Dec-08 06:00N 66°01' E 012°37'0 0.0
2017-Dec-08 05:30N 66°01' E 012°37'0 0.0
2017-Dec-08 05:00N 66°01' E 012°37'0 0.0
2017-Dec-08 04:29N 66°01' E 012°37'0 0.0
2017-Dec-08 04:00N 66°01' E 012°37'0 0.0
2017-Dec-08 03:30N 66°01' E 012°37'0 0.0
2017-Dec-08 03:00N 66°01' E 012°37'0 0.0
2017-Dec-08 02:30N 66°01' E 012°37'0 0.0
2017-Dec-08 01:58N 66°01' E 012°37'0 0.0
2017-Dec-08 01:27N 66°01' E 012°37'0 0.0
2017-Dec-08 00:50N 66°01' E 012°37'0 0.0
2017-Dec-08 00:29N 66°01' E 012°37'0 0.0
2017-Dec-07 23:59N 66°01' E 012°37'0 0.0
2017-Dec-07 23:30N 66°01' E 012°37'0 0.0
2017-Dec-07 22:56N 66°01' E 012°37'0 0.0
2017-Dec-07 22:29N 66°01' E 012°37'0 0.0
2017-Dec-07 21:58N 66°01' E 012°37'0 0.0
2017-Dec-07 21:30N 66°01' E 012°37'0 0.0
2017-Dec-07 21:00N 66°01' E 012°37'0 0.0
2017-Dec-07 20:26N 66°01' E 012°37'0 0.0
2017-Dec-07 20:00N 66°01' E 012°37'0 0.0
2017-Dec-07 19:22N 66°01' E 012°37'0 0.0
2017-Dec-07 18:56N 66°01' E 012°37'0 0.0
2017-Dec-07 18:24N 66°01' E 012°37'0 0.0
2017-Dec-07 18:00N 66°01' E 012°37'0 0.0
2017-Dec-07 17:30N 66°01' E 012°37'0 0.0
2017-Dec-07 17:00N 66°01' E 012°37'0 0.0
2017-Dec-07 16:30N 66°01' E 012°37'0 0.0
2017-Dec-07 16:00N 66°01' E 012°37'0 0.0
2017-Dec-07 15:30N 66°01' E 012°37'0 0.0
2017-Dec-07 14:57N 66°01' E 012°37'0 0.0
2017-Dec-07 14:30N 66°01' E 012°37'0 0.0
2017-Dec-07 13:59N 66°01' E 012°37'0 0.0
2017-Dec-07 13:30N 66°01' E 012°37'0 0.0
2017-Dec-07 13:00N 66°01' E 012°37'0 0.0
2017-Dec-07 12:28N 66°01' E 012°37'0 0.0
2017-Dec-07 12:00N 66°01' E 012°37'0 0.0
2017-Dec-07 11:30N 66°01' E 012°37'0 0.0
2017-Dec-07 11:00N 66°01' E 012°37'0 0.0
2017-Dec-07 10:30N 66°01' E 012°37'0 0.0
2017-Dec-07 10:00N 66°01' E 012°37'0 0.0
2017-Dec-07 09:30N 66°01' E 012°37'0 0.0
2017-Dec-07 08:59N 66°01' E 012°37'0 0.0
2017-Dec-07 08:27N 66°01' E 012°37'0 0.0
2017-Dec-07 07:55N 66°01' E 012°37'0 0.0
2017-Dec-07 07:28N 66°01' E 012°37'0 0.0
2017-Dec-07 07:00N 66°01' E 012°37'0 0.0
2017-Dec-07 06:20N 66°01' E 012°37'0 0.0
2017-Dec-07 06:00N 66°01' E 012°37'0 0.0
2017-Dec-07 05:30N 66°01' E 012°37'0 0.0
2017-Dec-07 04:58N 66°01' E 012°37'0 0.0
2017-Dec-07 04:30N 66°01' E 012°37'0 0.0
2017-Dec-07 03:59N 66°01' E 012°37'0 0.0
2017-Dec-07 03:30N 66°01' E 012°37'0 0.0
2017-Dec-07 02:59N 66°01' E 012°37'0 0.0
2017-Dec-07 02:30N 66°01' E 012°37'0 0.0
2017-Dec-07 02:00N 66°01' E 012°37'0 0.0
2017-Dec-07 01:30N 66°01' E 012°37'0 0.0
2017-Dec-07 01:00N 66°01' E 012°37'0 0.0
2017-Dec-07 00:30N 66°01' E 012°37'0 0.0
2017-Dec-07 00:00N 66°01' E 012°37'0 0.0
2017-Dec-06 23:30N 66°01' E 012°37'0 0.0
2017-Dec-06 22:59N 66°01' E 012°37'0 0.0
2017-Dec-06 22:28N 66°01' E 012°37'0 0.0
2017-Dec-06 22:00N 66°01' E 012°37'0 0.0
2017-Dec-06 21:30N 66°01' E 012°37'0 0.0
2017-Dec-06 20:59N 66°01' E 012°37'  
2017-Dec-04 10:30N 66°01' E 012°37'0 0.0
2017-Dec-04 10:00N 66°01' E 012°37'0 0.0
2017-Dec-04 09:30N 66°01' E 012°37'0 0.0
2017-Dec-04 08:59N 66°01' E 012°37'0 0.0
2017-Dec-04 08:30N 66°01' E 012°37'0 0.0
2017-Dec-04 08:00N 66°01' E 012°37'0 0.0
2017-Dec-04 07:30N 66°01' E 012°37'0 0.0
2017-Dec-04 07:00N 66°01' E 012°37'0 0.0
2017-Dec-04 06:30N 66°01' E 012°37'0 0.0
2017-Dec-04 06:00N 66°01' E 012°37'0 0.0
2017-Dec-04 05:30N 66°01' E 012°37'0 0.0
2017-Dec-04 05:00N 66°01' E 012°37'0 0.0
2017-Dec-04 04:30N 66°01' E 012°37'0 0.0
2017-Dec-04 04:00N 66°01' E 012°37'0 0.0
2017-Dec-04 03:30N 66°01' E 012°37'0 0.0
2017-Dec-04 03:00N 66°01' E 012°37'0 0.0
2017-Dec-04 02:30N 66°01' E 012°37'0 0.0
2017-Dec-04 02:00N 66°01' E 012°37'0 0.0
2017-Dec-04 01:30N 66°01' E 012°37'0 0.0
2017-Dec-04 01:00N 66°01' E 012°37'0 0.0
2017-Dec-04 00:30N 66°01' E 012°37'0 0.0
2017-Dec-03 23:59N 66°01' E 012°37'0 0.0
2017-Dec-03 23:30N 66°01' E 012°37'0 0.0
2017-Dec-03 23:00N 66°01' E 012°37'0 0.0
2017-Dec-03 22:30N 66°01' E 012°37'0 0.0
2017-Dec-03 22:00N 66°01' E 012°37'0 0.0
2017-Dec-03 21:30N 66°01' E 012°37'0 0.0
2017-Dec-03 21:00N 66°01' E 012°37'0 0.0
2017-Dec-03 20:30N 66°01' E 012°37'0 0.0
2017-Dec-03 20:00N 66°01' E 012°37'0 0.0
2017-Dec-03 19:30N 66°01' E 012°37'0 0.0
2017-Dec-03 19:00N 66°01' E 012°37'0 0.0
2017-Dec-03 18:30N 66°01' E 012°37'0 0.0
2017-Dec-03 17:58N 66°01' E 012°37'0 0.0
2017-Dec-03 17:29N 66°01' E 012°37'0 0.0
2017-Dec-03 16:59N 66°01' E 012°37'0 0.0
2017-Dec-03 16:30N 66°01' E 012°37'0 0.0
2017-Dec-03 16:00N 66°01' E 012°37'0 0.0
2017-Dec-03 15:30N 66°01' E 012°37'0 0.0
2017-Dec-03 15:00N 66°01' E 012°37'0 0.0
2017-Dec-03 14:30N 66°01' E 012°37'0 0.0
2017-Dec-03 14:00N 66°01' E 012°37'0 0.0
2017-Dec-03 13:30N 66°01' E 012°37'0 0.0
2017-Dec-03 13:00N 66°01' E 012°37'0 0.0
2017-Dec-03 12:30N 66°01' E 012°37'0 0.0
2017-Dec-03 12:00N 66°01' E 012°37'0 0.0
2017-Dec-03 11:30N 66°01' E 012°37'0 0.0
2017-Dec-03 11:00N 66°01' E 012°37'0 0.0
2017-Dec-03 10:30N 66°01' E 012°37'0 0.0
2017-Dec-03 09:59N 66°01' E 012°37'0 0.0
2017-Dec-03 09:30N 66°01' E 012°37'0 0.0
2017-Dec-03 09:00N 66°01' E 012°37'0 0.0
2017-Dec-03 08:30N 66°01' E 012°37'0 0.0
2017-Dec-03 08:00N 66°01' E 012°37'0 0.0
2017-Dec-03 07:30N 66°01' E 012°37'0 0.0
2017-Dec-03 07:00N 66°01' E 012°37'0 0.0
2017-Dec-03 06:29N 66°01' E 012°37'0 0.0
2017-Dec-03 06:00N 66°01' E 012°37'0 0.0
2017-Dec-03 05:30N 66°01' E 012°37'0 0.0
2017-Dec-03 05:00N 66°01' E 012°37'0 0.0
2017-Dec-03 04:30N 66°01' E 012°37'0 0.0
2017-Dec-03 04:00N 66°01' E 012°37'0 0.0
2017-Dec-03 03:30N 66°01' E 012°37'0 0.0
2017-Dec-03 03:00N 66°01' E 012°37'0 0.0
2017-Dec-03 02:30N 66°01' E 012°37'0 0.0
2017-Dec-03 02:00N 66°01' E 012°37'0 0.0
2017-Dec-03 01:30N 66°01' E 012°37'0 0.0
2017-Dec-03 01:00N 66°01' E 012°37'0 0.0
2017-Dec-03 00:29N 66°01' E 012°37'0 0.0
2017-Dec-02 23:59N 66°01' E 012°37'0 0.0
2017-Dec-02 23:30N 66°01' E 012°37'0 0.0
2017-Dec-02 23:00N 66°01' E 012°37'0 0.0
2017-Dec-02 22:30N 66°01' E 012°37'0 0.0
2017-Dec-02 22:00N 66°01' E 012°37'0 0.0
2017-Dec-02 21:30N 66°01' E 012°37'0 0.0
2017-Dec-02 21:00N 66°01' E 012°37'0 0.0
2017-Dec-02 20:29N 66°01' E 012°37'0 0.0
2017-Dec-02 20:00N 66°01' E 012°37'0 0.0
2017-Dec-02 19:29N 66°01' E 012°37'0 0.0
2017-Dec-02 19:00N 66°01' E 012°37'0 0.0
2017-Dec-02 18:30N 66°01' E 012°37'0 0.0
2017-Dec-02 17:59N 66°01' E 012°37'0 0.0
2017-Dec-02 17:30N 66°01' E 012°37'0 0.0
2017-Dec-02 17:00N 66°01' E 012°37'0 0.0
2017-Dec-02 16:29N 66°01' E 012°37'0 0.0
2017-Dec-02 16:00N 66°01' E 012°37'0 0.0
2017-Dec-02 15:29N 66°01' E 012°37'0 0.0
2017-Dec-02 15:00N 66°01' E 012°37'0 0.0
2017-Dec-02 14:30N 66°01' E 012°37'0 0.0
2017-Dec-02 13:59N 66°01' E 012°37'0 0.0
2017-Dec-02 13:30N 66°01' E 012°37'0 0.0
2017-Dec-02 13:00N 66°01' E 012°37'0 0.0
2017-Dec-02 12:30N 66°01' E 012°37'0 0.0
2017-Dec-02 12:00N 66°01' E 012°37'0 0.0
2017-Dec-02 11:30N 66°01' E 012°37'0 0.0
2017-Dec-02 11:00N 66°01' E 012°37'0 0.0
2017-Dec-02 10:29N 66°01' E 012°37'0 0.0
2017-Dec-02 10:00N 66°01' E 012°37'0 0.0
2017-Dec-02 09:30N 66°01' E 012°37'0 0.0
2017-Dec-02 09:00N 66°01' E 012°37'0 0.0
2017-Dec-02 08:30N 66°01' E 012°37'0 0.0
2017-Dec-02 08:00N 66°01' E 012°37'0 0.0
2017-Dec-02 07:30N 66°01' E 012°37'0 0.0
2017-Dec-02 07:00N 66°01' E 012°37'0 0.0
2017-Dec-02 06:30N 66°01' E 012°37'0 0.0
2017-Dec-02 06:00N 66°01' E 012°37'0 0.0
2017-Dec-02 05:30N 66°01' E 012°37'0 0.0
2017-Dec-02 05:00N 66°01' E 012°37'0 0.0
2017-Dec-02 04:29N 66°01' E 012°37'0 0.0
2017-Dec-02 04:00N 66°01' E 012°37'0 0.0
2017-Dec-02 03:30N 66°01' E 012°37'0 0.0
2017-Dec-02 03:00N 66°01' E 012°37'0 0.0
2017-Dec-02 02:30N 66°01' E 012°37'0 0.0
2017-Dec-02 02:00N 66°01' E 012°37'0 0.0
2017-Dec-02 01:30N 66°01' E 012°37'0 0.0
2017-Dec-02 01:00N 66°01' E 012°37'0 0.0
2017-Dec-02 00:30N 66°01' E 012°37'0 0.0
2017-Dec-02 00:00N 66°01' E 012°37'0 0.0
2017-Dec-01 23:29N 66°01' E 012°37'0 0.0
2017-Dec-01 23:00N 66°01' E 012°37'0 0.0
2017-Dec-01 22:29N 66°01' E 012°37'0 0.0
2017-Dec-01 22:00N 66°01' E 012°37'0 0.0
2017-Dec-01 21:30N 66°01' E 012°37'0 0.0
2017-Dec-01 20:59N 66°01' E 012°37'0 0.0
2017-Dec-01 20:30N 66°01' E 012°37'0 0.0
2017-Dec-01 20:00N 66°01' E 012°37'0 0.0
2017-Dec-01 19:30N 66°01' E 012°37'0 0.0
2017-Dec-01 18:59N 66°01' E 012°37'0 0.0
2017-Dec-01 18:29N 66°01' E 012°37'0 0.0
2017-Dec-01 18:00N 66°01' E 012°37'0 0.0
2017-Dec-01 17:30N 66°01' E 012°37'0 0.0
2017-Dec-01 17:00N 66°01' E 012°37'  
Track history (hours):
 
Tides and Currents Weather Stations Pressure Air Temp Water Temp Dewpoint Dewpoint Depression Visibility Wind Speed Wind Dir Waves Ship Positions

Kjella

Last reported at 2017-Dec-11 17:00 UTC. Time now 2017-Dec-12 12:39 UTC.
Position N 65°49' E 012°26'.

Length 55 m; draft 3.5 m.

Type: Passenger vessel. MMSI: 257049700.

Date/timePositionNaut miles runAvg speedWind from/ knotsBaromVisibWave heightAir tempDewpointWater temp
2017-Dec-11 17:00N 65°49' E 012°26'1 1.8
2017-Dec-11 16:30N 65°49' E 012°27'3 6.4
2017-Dec-11 16:00N 65°46' E 012°30'3 5.5
2017-Dec-11 15:30N 65°43' E 012°27'510.0
2017-Dec-11 15:00N 65°48' E 012°31'3 5.4
2017-Dec-11 14:29N 65°49' E 012°26'3 4.8
2017-Dec-11 13:54N 65°47' E 012°31'410.6
2017-Dec-11 13:30N 65°43' E 012°27'3 6.2
2017-Dec-11 13:00N 65°46' E 012°33'3 6.3
2017-Dec-11 12:30N 65°48' E 012°30'1 2.6
2017-Dec-11 12:00N 65°49' E 012°27'4 8.6
2017-Dec-11 11:30N 65°46' E 012°33'4 7.2
2017-Dec-11 11:00N 65°43' E 012°28'3 5.5
2017-Dec-11 10:30N 65°45' E 012°31'3 6.9
2017-Dec-11 10:00N 65°48' E 012°30'2 3.5
2017-Dec-11 09:31N 65°49' E 012°26'3 6.2
2017-Dec-11 09:00N 65°47' E 012°30'4 7.7
2017-Dec-11 08:30N 65°43' E 012°28'3 6.4
2017-Dec-11 08:00N 65°45' E 012°32'3 6.5
2017-Dec-11 07:30N 65°48' E 012°30'2 3.2
2017-Dec-11 07:00N 65°49' E 012°26'3 6.4
2017-Dec-11 06:30N 65°46' E 012°31'3 6.9
2017-Dec-11 06:00N 65°43' E 012°28'1 2.5
2017-Dec-11 05:30N 65°44' E 012°29'4 7.0
2017-Dec-11 05:00N 65°48' E 012°31'2 5.0
2017-Dec-11 04:30N 65°49' E 012°26'0 0.0
2017-Dec-11 04:00N 65°49' E 012°26'0 0.0
2017-Dec-11 03:30N 65°49' E 012°26'0 0.0
2017-Dec-11 03:00N 65°49' E 012°26'0 0.0
2017-Dec-11 02:30N 65°49' E 012°26'0 0.0
2017-Dec-11 02:00N 65°49' E 012°26'0 0.0
2017-Dec-11 01:30N 65°49' E 012°26'0 0.0
2017-Dec-11 01:00N 65°49' E 012°26'0 0.0
2017-Dec-11 00:30N 65°49' E 012°26'0 0.0
2017-Dec-11 00:00N 65°49' E 012°26'0 0.0
2017-Dec-10 23:30N 65°49' E 012°26'0 0.0
2017-Dec-10 23:00N 65°49' E 012°26'0 0.0
2017-Dec-10 22:30N 65°49' E 012°26'0 0.0
2017-Dec-10 22:00N 65°49' E 012°26'0 0.0
2017-Dec-10 21:30N 65°49' E 012°26'3 5.4
2017-Dec-10 21:00N 65°47' E 012°31'5 9.5
2017-Dec-10 20:30N 65°43' E 012°28'3 6.8
2017-Dec-10 20:00N 65°46' E 012°30'4 7.3
2017-Dec-10 19:30N 65°49' E 012°26'3 6.1
2017-Dec-10 19:00N 65°47' E 012°31'3 6.8
2017-Dec-10 18:30N 65°44' E 012°28'2 3.5
2017-Dec-10 18:00N 65°45' E 012°31'3 5.9
2017-Dec-10 17:30N 65°48' E 012°31'3 5.2
2017-Dec-10 17:00N 65°49' E 012°26'1 2.4
2017-Dec-10 16:30N 65°49' E 012°28'3 6.0
2017-Dec-10 16:00N 65°46' E 012°29'3 4.9
2017-Dec-10 15:30N 65°43' E 012°27'5 9.5
2017-Dec-10 15:00N 65°48' E 012°31'3 5.5
2017-Dec-10 14:30N 65°49' E 012°26'0 0.0
2017-Dec-10 14:00N 65°49' E 012°26'0 0.0
2017-Dec-10 13:30N 65°49' E 012°26'0 0.0
2017-Dec-10 13:00N 65°49' E 012°26'0 0.0
2017-Dec-10 12:30N 65°49' E 012°26'1 2.1
2017-Dec-10 12:00N 65°49' E 012°28'4 7.3
2017-Dec-10 11:30N 65°46' E 012°33'4 7.5
2017-Dec-10 11:00N 65°43' E 012°28'1 1.2
2017-Dec-10 10:30N 65°43' E 012°27'510.5
2017-Dec-10 10:00N 65°48' E 012°30'2 3.8
2017-Dec-10 09:30N 65°49' E 012°26'3 5.4
2017-Dec-10 09:00N 65°47' E 012°31'5 9.5
2017-Dec-10 08:30N 65°43' E 012°28'3 5.9
2017-Dec-10 08:00N 65°45' E 012°32'3 6.6
2017-Dec-10 07:30N 65°48' E 012°30'2 3.7
2017-Dec-10 07:00N 65°49' E 012°26'0 0.0
2017-Dec-10 06:30N 65°49' E 012°26'0 0.0
2017-Dec-10 06:00N 65°49' E 012°26'0 0.0
2017-Dec-10 05:30N 65°49' E 012°26'0 0.0
2017-Dec-10 05:00N 65°49' E 012°26'0 0.0
2017-Dec-10 04:30N 65°49' E 012°26'0 0.0
2017-Dec-10 04:00N 65°49' E 012°26'0 0.0
2017-Dec-10 03:30N 65°49' E 012°26'0 0.0
2017-Dec-10 03:00N 65°49' E 012°26'0 0.0
2017-Dec-10 02:30N 65°49' E 012°26'0 0.0
2017-Dec-10 02:00N 65°49' E 012°26'0 0.0
2017-Dec-10 01:29N 65°49' E 012°26'0 0.0
2017-Dec-10 01:00N 65°49' E 012°26'0 0.0
2017-Dec-10 00:30N 65°49' E 012°26'0 0.0
2017-Dec-09 23:59N 65°49' E 012°26'0 0.0
2017-Dec-09 23:29N 65°49' E 012°26'0 0.0
2017-Dec-09 23:00N 65°49' E 012°26'0 0.0
2017-Dec-09 22:30N 65°49' E 012°26'0 0.0
2017-Dec-09 22:00N 65°49' E 012°26'0 0.0
2017-Dec-09 21:30N 65°49' E 012°26'0 0.0
2017-Dec-09 21:00N 65°49' E 012°26'0 0.0
2017-Dec-09 20:30N 65°49' E 012°26'0 0.0
2017-Dec-09 20:00N 65°49' E 012°26'0 0.0
2017-Dec-09 19:30N 65°49' E 012°26'0 0.6
2017-Dec-09 19:00N 65°49' E 012°26'5 9.0
2017-Dec-09 18:30N 65°45' E 012°29'0 1.0
2017-Dec-09 17:59N 65°45' E 012°30'3 6.8
2017-Dec-09 17:30N 65°48' E 012°31'2 5.0
2017-Dec-09 17:00N 65°49' E 012°26'2 4.9
2017-Dec-09 16:30N 65°48' E 012°31'3 5.4
2017-Dec-09 16:00N 65°45' E 012°31'3 5.8
2017-Dec-09 15:30N 65°43' E 012°28'510.4
2017-Dec-09 15:00N 65°48' E 012°31'3 5.4
2017-Dec-09 14:30N 65°49' E 012°26'0 0.0
2017-Dec-09 14:00N 65°49' E 012°26'0 0.0
2017-Dec-09 13:30N 65°49' E 012°26'0 0.0
2017-Dec-09 13:00N 65°49' E 012°26'0 0.0
2017-Dec-09 12:30N 65°49' E 012°26'0 0.5
2017-Dec-09 12:00N 65°49' E 012°26'5 9.3
2017-Dec-09 11:30N 65°46' E 012°33'4 7.3
2017-Dec-09 11:00N 65°43' E 012°28'4 7.4
2017-Dec-09 10:30N 65°46' E 012°33'3 6.1
2017-Dec-09 10:00N 65°48' E 012°30'2 3.5
2017-Dec-09 09:30N 65°49' E 012°26'3 6.1
2017-Dec-09 09:00N 65°47' E 012°30'4 8.2
2017-Dec-09 08:30N 65°43' E 012°28'3 6.8
2017-Dec-09 08:00N 65°46' E 012°33'3 6.2
2017-Dec-09 07:30N 65°48' E 012°30'2 3.6
2017-Dec-09 06:59N 65°49' E 012°26'3 5.2
2017-Dec-09 06:30N 65°48' E 012°31'5 9.3
2017-Dec-09 06:00N 65°43' E 012°27'1 1.0
2017-Dec-09 05:29N 65°43' E 012°28'0 0.0
2017-Dec-09 05:00N 65°43' E 012°28'0 0.0
2017-Dec-09 04:30N 65°43' E 012°28'0 0.0
2017-Dec-09 04:00N 65°43' E 012°28'0 0.0
2017-Dec-09 03:30N 65°43' E 012°28'0 0.0
2017-Dec-09 03:00N 65°43' E 012°28'0 0.0
2017-Dec-09 02:30N 65°43' E 012°28'0 0.0
2017-Dec-09 02:00N 65°43' E 012°28'0 0.0
2017-Dec-09 01:30N 65°43' E 012°28'0 0.0
2017-Dec-09 01:00N 65°43' E 012°28'0 0.0
2017-Dec-09 00:30N 65°43' E 012°28'0 0.0
2017-Dec-09 00:00N 65°43' E 012°28'0 0.0
2017-Dec-08 23:30N 65°43' E 012°28'0 0.0
2017-Dec-08 23:00N 65°43' E 012°28'0 0.0
2017-Dec-08 22:30N 65°43' E 012°28'0 0.0
2017-Dec-08 22:00N 65°43' E 012°28'0 0.0
2017-Dec-08 21:30N 65°43' E 012°28'0 0.0
2017-Dec-08 21:00N 65°43' E 012°28'0 0.0
2017-Dec-08 20:30N 65°43' E 012°28'5 9.2
2017-Dec-08 20:00N 65°47' E 012°31'3 5.6
2017-Dec-08 19:30N 65°49' E 012°26'2 3.8
2017-Dec-08 19:00N 65°48' E 012°30'5 9.9
2017-Dec-08 18:30N 65°44' E 012°27'1 1.4
2017-Dec-08 17:59N 65°43' E 012°28'0 0.0
2017-Dec-08 17:30N 65°43' E 012°28'5 9.5
2017-Dec-08 17:00N 65°47' E 012°31'3 5.3
2017-Dec-08 16:30N 65°49' E 012°26'0 0.0
2017-Dec-08 15:59N 65°49' E 012°26'0 0.0
2017-Dec-08 15:30N 65°49' E 012°26'0 0.0
2017-Dec-08 15:00N 65°49' E 012°26'2 3.2
2017-Dec-08 14:30N 65°49' E 012°22'511.0
2017-Dec-08 14:00N 65°54' E 012°22'2 4.0
2017-Dec-08 13:30N 65°52' E 012°22'510.5
2017-Dec-08 13:00N 65°57' E 012°26'511.2
2017-Dec-08 12:30N 66°02' E 012°35'2 3.1
2017-Dec-08 12:00N 66°02' E 012°39'1 1.3
2017-Dec-08 11:30N 66°01' E 012°37'0 0.0
2017-Dec-08 10:57N 66°01' E 012°37'0 0.0
2017-Dec-08 10:30N 66°01' E 012°37'0 0.0
2017-Dec-08 10:00N 66°01' E 012°37'0 0.0
2017-Dec-08 09:30N 66°01' E 012°37'0 0.0
2017-Dec-08 09:00N 66°01' E 012°37'0 0.0
2017-Dec-08 08:30N 66°01' E 012°37'0 0.0
2017-Dec-08 08:00N 66°01' E 012°37'0 0.0
2017-Dec-08 07:30N 66°01' E 012°37'0 0.0
2017-Dec-08 07:00N 66°01' E 012°37'0 0.0
2017-Dec-08 06:30N 66°01' E 012°37'0 0.0
2017-Dec-08 06:00N 66°01' E 012°37'0 0.0
2017-Dec-08 05:30N 66°01' E 012°37'0 0.0
2017-Dec-08 05:00N 66°01' E 012°37'0 0.0
2017-Dec-08 04:29N 66°01' E 012°37'0 0.0
2017-Dec-08 04:00N 66°01' E 012°37'0 0.0
2017-Dec-08 03:30N 66°01' E 012°37'0 0.0
2017-Dec-08 03:00N 66°01' E 012°37'0 0.0
2017-Dec-08 02:30N 66°01' E 012°37'0 0.0
2017-Dec-08 01:58N 66°01' E 012°37'0 0.0
2017-Dec-08 01:27N 66°01' E 012°37'0 0.0
2017-Dec-08 00:50N 66°01' E 012°37'0 0.0
2017-Dec-08 00:29N 66°01' E 012°37'0 0.0
2017-Dec-07 23:59N 66°01' E 012°37'0 0.0
2017-Dec-07 23:30N 66°01' E 012°37'0 0.0
2017-Dec-07 22:56N 66°01' E 012°37'0 0.0
2017-Dec-07 22:29N 66°01' E 012°37'0 0.0
2017-Dec-07 21:58N 66°01' E 012°37'0 0.0
2017-Dec-07 21:30N 66°01' E 012°37'0 0.0
2017-Dec-07 21:00N 66°01' E 012°37'0 0.0
2017-Dec-07 20:26N 66°01' E 012°37'0 0.0
2017-Dec-07 20:00N 66°01' E 012°37'0 0.0
2017-Dec-07 19:22N 66°01' E 012°37'0 0.0
2017-Dec-07 18:56N 66°01' E 012°37'0 0.0
2017-Dec-07 18:24N 66°01' E 012°37'0 0.0
2017-Dec-07 18:00N 66°01' E 012°37'0 0.0
2017-Dec-07 17:30N 66°01' E 012°37'0 0.0
2017-Dec-07 17:00N 66°01' E 012°37'0 0.0
2017-Dec-07 16:30N 66°01' E 012°37'0 0.0
2017-Dec-07 16:00N 66°01' E 012°37'0 0.0
2017-Dec-07 15:30N 66°01' E 012°37'0 0.0
2017-Dec-07 14:57N 66°01' E 012°37'0 0.0
2017-Dec-07 14:30N 66°01' E 012°37'0 0.0
2017-Dec-07 13:59N 66°01' E 012°37'0 0.0
2017-Dec-07 13:30N 66°01' E 012°37'0 0.0
2017-Dec-07 13:00N 66°01' E 012°37'0 0.0
2017-Dec-07 12:28N 66°01' E 012°37'0 0.0
2017-Dec-07 12:00N 66°01' E 012°37'0 0.0
2017-Dec-07 11:30N 66°01' E 012°37'0 0.0
2017-Dec-07 11:00N 66°01' E 012°37'0 0.0
2017-Dec-07 10:30N 66°01' E 012°37'0 0.0
2017-Dec-07 10:00N 66°01' E 012°37'0 0.0
2017-Dec-07 09:30N 66°01' E 012°37'0 0.0
2017-Dec-07 08:59N 66°01' E 012°37'0 0.0
2017-Dec-07 08:27N 66°01' E 012°37'0 0.0
2017-Dec-07 07:55N 66°01' E 012°37'0 0.0
2017-Dec-07 07:28N 66°01' E 012°37'0 0.0
2017-Dec-07 07:00N 66°01' E 012°37'0 0.0
2017-Dec-07 06:20N 66°01' E 012°37'0 0.0
2017-Dec-07 06:00N 66°01' E 012°37'0 0.0
2017-Dec-07 05:30N 66°01' E 012°37'0 0.0
2017-Dec-07 04:58N 66°01' E 012°37'0 0.0
2017-Dec-07 04:30N 66°01' E 012°37'0 0.0
2017-Dec-07 03:59N 66°01' E 012°37'0 0.0
2017-Dec-07 03:30N 66°01' E 012°37'0 0.0
2017-Dec-07 02:59N 66°01' E 012°37'0 0.0
2017-Dec-07 02:30N 66°01' E 012°37'0 0.0
2017-Dec-07 02:00N 66°01' E 012°37'0 0.0
2017-Dec-07 01:30N 66°01' E 012°37'0 0.0
2017-Dec-07 01:00N 66°01' E 012°37'0 0.0
2017-Dec-07 00:30N 66°01' E 012°37'0 0.0
2017-Dec-07 00:00N 66°01' E 012°37'0 0.0
2017-Dec-06 23:30N 66°01' E 012°37'0 0.0
2017-Dec-06 22:59N 66°01' E 012°37'0 0.0
2017-Dec-06 22:28N 66°01' E 012°37'0 0.0
2017-Dec-06 22:00N 66°01' E 012°37'0 0.0
2017-Dec-06 21:30N 66°01' E 012°37'0 0.0
2017-Dec-06 20:59N 66°01' E 012°37'  
2017-Dec-04 10:30N 66°01' E 012°37'0 0.0
2017-Dec-04 10:00N 66°01' E 012°37'0 0.0
2017-Dec-04 09:30N 66°01' E 012°37'0 0.0
2017-Dec-04 08:59N 66°01' E 012°37'0 0.0
2017-Dec-04 08:30N 66°01' E 012°37'0 0.0
2017-Dec-04 08:00N 66°01' E 012°37'0 0.0
2017-Dec-04 07:30N 66°01' E 012°37'0 0.0
2017-Dec-04 07:00N 66°01' E 012°37'0 0.0
2017-Dec-04 06:30N 66°01' E 012°37'0 0.0
2017-Dec-04 06:00N 66°01' E 012°37'0 0.0
2017-Dec-04 05:30N 66°01' E 012°37'0 0.0
2017-Dec-04 05:00N 66°01' E 012°37'0 0.0
2017-Dec-04 04:30N 66°01' E 012°37'0 0.0
2017-Dec-04 04:00N 66°01' E 012°37'0 0.0
2017-Dec-04 03:30N 66°01' E 012°37'0 0.0
2017-Dec-04 03:00N 66°01' E 012°37'0 0.0
2017-Dec-04 02:30N 66°01' E 012°37'0 0.0
2017-Dec-04 02:00N 66°01' E 012°37'0 0.0
2017-Dec-04 01:30N 66°01' E 012°37'0 0.0
2017-Dec-04 01:00N 66°01' E 012°37'0 0.0
2017-Dec-04 00:30N 66°01' E 012°37'0 0.0
2017-Dec-03 23:59N 66°01' E 012°37'0 0.0
2017-Dec-03 23:30N 66°01' E 012°37'0 0.0
2017-Dec-03 23:00N 66°01' E 012°37'0 0.0
2017-Dec-03 22:30N 66°01' E 012°37'0 0.0
2017-Dec-03 22:00N 66°01' E 012°37'0 0.0
2017-Dec-03 21:30N 66°01' E 012°37'0 0.0
2017-Dec-03 21:00N 66°01' E 012°37'0 0.0
2017-Dec-03 20:30N 66°01' E 012°37'0 0.0
2017-Dec-03 20:00N 66°01' E 012°37'0 0.0
2017-Dec-03 19:30N 66°01' E 012°37'0 0.0
2017-Dec-03 19:00N 66°01' E 012°37'0 0.0
2017-Dec-03 18:30N 66°01' E 012°37'0 0.0
2017-Dec-03 17:58N 66°01' E 012°37'0 0.0
2017-Dec-03 17:29N 66°01' E 012°37'0 0.0
2017-Dec-03 16:59N 66°01' E 012°37'0 0.0
2017-Dec-03 16:30N 66°01' E 012°37'0 0.0
2017-Dec-03 16:00N 66°01' E 012°37'0 0.0
2017-Dec-03 15:30N 66°01' E 012°37'0 0.0
2017-Dec-03 15:00N 66°01' E 012°37'0 0.0
2017-Dec-03 14:30N 66°01' E 012°37'0 0.0
2017-Dec-03 14:00N 66°01' E 012°37'0 0.0
2017-Dec-03 13:30N 66°01' E 012°37'0 0.0
2017-Dec-03 13:00N 66°01' E 012°37'0 0.0
2017-Dec-03 12:30N 66°01' E 012°37'0 0.0
2017-Dec-03 12:00N 66°01' E 012°37'0 0.0
2017-Dec-03 11:30N 66°01' E 012°37'0 0.0
2017-Dec-03 11:00N 66°01' E 012°37'0 0.0
2017-Dec-03 10:30N 66°01' E 012°37'0 0.0
2017-Dec-03 09:59N 66°01' E 012°37'0 0.0
2017-Dec-03 09:30N 66°01' E 012°37'0 0.0
2017-Dec-03 09:00N 66°01' E 012°37'0 0.0
2017-Dec-03 08:30N 66°01' E 012°37'0 0.0
2017-Dec-03 08:00N 66°01' E 012°37'0 0.0
2017-Dec-03 07:30N 66°01' E 012°37'0 0.0
2017-Dec-03 07:00N 66°01' E 012°37'0 0.0
2017-Dec-03 06:29N 66°01' E 012°37'0 0.0
2017-Dec-03 06:00N 66°01' E 012°37'0 0.0
2017-Dec-03 05:30N 66°01' E 012°37'0 0.0
2017-Dec-03 05:00N 66°01' E 012°37'0 0.0
2017-Dec-03 04:30N 66°01' E 012°37'0 0.0
2017-Dec-03 04:00N 66°01' E 012°37'0 0.0
2017-Dec-03 03:30N 66°01' E 012°37'0 0.0
2017-Dec-03 03:00N 66°01' E 012°37'0 0.0
2017-Dec-03 02:30N 66°01' E 012°37'0 0.0
2017-Dec-03 02:00N 66°01' E 012°37'0 0.0
2017-Dec-03 01:30N 66°01' E 012°37'0 0.0
2017-Dec-03 01:00N 66°01' E 012°37'0 0.0
2017-Dec-03 00:29N 66°01' E 012°37'0 0.0
2017-Dec-02 23:59N 66°01' E 012°37'0 0.0
2017-Dec-02 23:30N 66°01' E 012°37'0 0.0
2017-Dec-02 23:00N 66°01' E 012°37'0 0.0
2017-Dec-02 22:30N 66°01' E 012°37'0 0.0
2017-Dec-02 22:00N 66°01' E 012°37'0 0.0
2017-Dec-02 21:30N 66°01' E 012°37'0 0.0
2017-Dec-02 21:00N 66°01' E 012°37'0 0.0
2017-Dec-02 20:29N 66°01' E 012°37'0 0.0
2017-Dec-02 20:00N 66°01' E 012°37'0 0.0
2017-Dec-02 19:29N 66°01' E 012°37'0 0.0
2017-Dec-02 19:00N 66°01' E 012°37'0 0.0
2017-Dec-02 18:30N 66°01' E 012°37'0 0.0
2017-Dec-02 17:59N 66°01' E 012°37'0 0.0
2017-Dec-02 17:30N 66°01' E 012°37'0 0.0
2017-Dec-02 17:00N 66°01' E 012°37'0 0.0
2017-Dec-02 16:29N 66°01' E 012°37'0 0.0
2017-Dec-02 16:00N 66°01' E 012°37'0 0.0
2017-Dec-02 15:29N 66°01' E 012°37'0 0.0
2017-Dec-02 15:00N 66°01' E 012°37'0 0.0
2017-Dec-02 14:30N 66°01' E 012°37'0 0.0
2017-Dec-02 13:59N 66°01' E 012°37'0 0.0
2017-Dec-02 13:30N 66°01' E 012°37'0 0.0
2017-Dec-02 13:00N 66°01' E 012°37'0 0.0
2017-Dec-02 12:30N 66°01' E 012°37'0 0.0
2017-Dec-02 12:00N 66°01' E 012°37'0 0.0
2017-Dec-02 11:30N 66°01' E 012°37'0 0.0
2017-Dec-02 11:00N 66°01' E 012°37'0 0.0
2017-Dec-02 10:29N 66°01' E 012°37'0 0.0
2017-Dec-02 10:00N 66°01' E 012°37'0 0.0
2017-Dec-02 09:30N 66°01' E 012°37'0 0.0
2017-Dec-02 09:00N 66°01' E 012°37'0 0.0
2017-Dec-02 08:30N 66°01' E 012°37'0 0.0
2017-Dec-02 08:00N 66°01' E 012°37'0 0.0
2017-Dec-02 07:30N 66°01' E 012°37'0 0.0
2017-Dec-02 07:00N 66°01' E 012°37'0 0.0
2017-Dec-02 06:30N 66°01' E 012°37'0 0.0
2017-Dec-02 06:00N 66°01' E 012°37'0 0.0
2017-Dec-02 05:30N 66°01' E 012°37'0 0.0
2017-Dec-02 05:00N 66°01' E 012°37'0 0.0
2017-Dec-02 04:29N 66°01' E 012°37'0 0.0
2017-Dec-02 04:00N 66°01' E 012°37'0 0.0
2017-Dec-02 03:30N 66°01' E 012°37'0 0.0
2017-Dec-02 03:00N 66°01' E 012°37'0 0.0
2017-Dec-02 02:30N 66°01' E 012°37'0 0.0
2017-Dec-02 02:00N 66°01' E 012°37'0 0.0
2017-Dec-02 01:30N 66°01' E 012°37'0 0.0
2017-Dec-02 01:00N 66°01' E 012°37'0 0.0
2017-Dec-02 00:30N 66°01' E 012°37'0 0.0
2017-Dec-02 00:00N 66°01' E 012°37'0 0.0
2017-Dec-01 23:29N 66°01' E 012°37'0 0.0
2017-Dec-01 23:00N 66°01' E 012°37'0 0.0
2017-Dec-01 22:29N 66°01' E 012°37'0 0.0
2017-Dec-01 22:00N 66°01' E 012°37'0 0.0
2017-Dec-01 21:30N 66°01' E 012°37'0 0.0
2017-Dec-01 20:59N 66°01' E 012°37'0 0.0
2017-Dec-01 20:30N 66°01' E 012°37'0 0.0
2017-Dec-01 20:00N 66°01' E 012°37'0 0.0
2017-Dec-01 19:30N 66°01' E 012°37'0 0.0
2017-Dec-01 18:59N 66°01' E 012°37'0 0.0
2017-Dec-01 18:29N 66°01' E 012°37'0 0.0
2017-Dec-01 18:00N 66°01' E 012°37'0 0.0
2017-Dec-01 17:30N 66°01' E 012°37'0 0.0
2017-Dec-01 17:00N 66°01' E 012°37'  

Dump ship's entire track history